Tomkins Cove, New York
Current Conditions -  °F | °C
As of 6:45 PM on Wednesday 28 Jan 2015 (Local Time) from KSWF Reporting Station
Clear Clear  
Wind Chill: -9°   Ceiling: Unl
Heat Index: -4°   Visibility: 10mi
Dew Point: -14°   Wind: 9mph
Humidity: 46%   Direction: 20°NNE
Pressure: 30.19"   Gusts: NA
Location:  41.26°N, 73.98°W
Report Text: KSWF 282345Z 02008KT 10SM SKC M04/M14 A3019
Loading
Personal Weather Stations






























Interactive Weather Map New forecast layout! Learn more

10-Day Weather Forecast

Advertisements
Track Severe Weather on mobile